createdAt,value
2018-12-06T00:01:11.721Z,58.83
2018-12-06T00:03:40.597Z,55.95
2018-12-06T00:06:09.345Z,60.88
2018-12-06T00:08:38.258Z,59.45
2018-12-06T00:11:07.022Z,56.77
2018-12-06T00:13:35.897Z,62.17
2018-12-06T00:16:04.617Z,61.55
2018-12-06T00:18:33.528Z,51.05
2018-12-06T00:21:02.316Z,67.55
2018-12-06T00:23:31.143Z,52.78
2018-12-06T00:26:00.015Z,61.10
2018-12-06T00:28:28.839Z,44.38
2018-12-06T00:30:57.671Z,48.80
2018-12-06T00:33:26.359Z,51.15
2018-12-06T00:35:55.143Z,55.55
2018-12-06T00:38:24.899Z,45.75
2018-12-06T00:40:53.710Z,56.90
2018-12-06T00:43:22.645Z,47.38
2018-12-06T00:45:51.521Z,48.15
2018-12-06T00:48:20.201Z,50.70
2018-12-06T00:50:49.097Z,40.98
2018-12-06T00:53:18.500Z,52.85
2018-12-06T00:55:47.280Z,49.58
2018-12-06T00:58:16.096Z,59.53
2018-12-06T01:00:44.885Z,39.73
2018-12-06T01:03:13.669Z,56.13
2018-12-06T01:05:42.535Z,43.28
2018-12-06T01:08:11.337Z,39.78
2018-12-06T01:10:40.184Z,49.67
2018-12-06T01:13:09.113Z,46.70
2018-12-06T01:15:38.104Z,32.83
2018-12-06T01:18:06.859Z,44.53
2018-12-06T01:20:35.615Z,50.33
2018-12-06T01:23:04.428Z,32.98
2018-12-06T01:25:33.169Z,34.40
2018-12-06T01:28:01.871Z,43.23
2018-12-06T01:30:30.741Z,30.20
2018-12-06T01:32:59.563Z,44.73
2018-12-06T01:35:28.444Z,35.58
2018-12-06T01:37:57.294Z,39.27
2018-12-06T01:40:26.225Z,32.73
2018-12-06T01:42:54.933Z,35.68
2018-12-06T01:45:23.770Z,37.30
2018-12-06T01:47:52.645Z,40.67
2018-12-06T01:50:22.380Z,27.42
2018-12-06T01:52:51.086Z,39.55
2018-12-06T01:55:19.835Z,38.90
2018-12-06T01:57:48.558Z,24.80
2018-12-06T02:00:17.422Z,29.45
2018-12-06T02:02:46.143Z,46.68
2018-12-06T02:05:14.921Z,35.17
2018-12-06T02:07:43.663Z,44.70
2018-12-06T02:10:12.578Z,24.25
2018-12-06T02:12:41.290Z,48.45
2018-12-06T02:15:10.149Z,31.97
2018-12-06T02:17:38.873Z,32.30
2018-12-06T02:20:07.729Z,41.77
2018-12-06T02:22:36.489Z,37.80
2018-12-06T02:25:05.379Z,28.80
2018-12-06T02:27:34.130Z,51.35
2018-12-06T02:30:03.186Z,18.77
2018-12-06T02:32:32.099Z,47.25
2018-12-06T02:35:00.860Z,29.55
2018-12-06T02:37:29.777Z,25.88
2018-12-06T02:39:58.629Z,34.25
2018-12-06T02:42:27.506Z,19.57
2018-12-06T02:44:56.221Z,28.52
2018-12-06T02:47:25.082Z,19.67
2018-12-06T02:49:54.074Z,32.67
2018-12-06T02:52:23.084Z,23.00
2018-12-06T02:54:51.959Z,23.40
2018-12-06T02:57:20.719Z,24.30
2018-12-06T02:59:50.621Z,28.17
2018-12-06T03:02:19.406Z,16.73
2018-12-06T03:04:48.243Z,27.10
2018-12-06T03:07:16.959Z,17.27
2018-12-06T03:09:46.355Z,27.98
2018-12-06T03:12:15.216Z,26.70
2018-12-06T03:14:44.007Z,23.73
2018-12-06T03:17:14.723Z,21.62
2018-12-06T03:19:43.623Z,27.87
2018-12-06T03:22:12.297Z,32.00
2018-12-06T03:24:41.022Z,29.20
2018-12-06T03:27:09.885Z,43.90
2018-12-06T03:29:38.610Z,21.12
2018-12-06T03:32:07.409Z,23.85
2018-12-06T03:34:36.129Z,29.07
2018-12-06T03:37:06.002Z,25.95
2018-12-06T03:39:34.696Z,22.60
2018-12-06T03:42:03.428Z,21.12
2018-12-06T03:44:34.234Z,20.00
2018-12-06T03:47:03.055Z,26.68
2018-12-06T03:49:32.850Z,21.82
2018-12-06T03:52:01.652Z,25.72
2018-12-06T03:54:30.355Z,25.45
2018-12-06T03:56:59.132Z,21.48
2018-12-06T03:59:28.044Z,23.92
2018-12-06T04:01:56.889Z,20.80
2018-12-06T04:04:25.792Z,12.23
2018-12-06T04:06:54.517Z,24.67
2018-12-06T04:09:23.255Z,14.10
2018-12-06T04:11:52.071Z,25.32
2018-12-06T04:14:20.804Z,24.18
2018-12-06T04:16:49.692Z,10.60
2018-12-06T04:19:18.417Z,16.70
2018-12-06T04:21:47.206Z,28.10
2018-12-06T04:24:15.951Z,17.15
2018-12-06T04:26:44.819Z,16.95
2018-12-06T04:29:13.599Z,14.98
2018-12-06T04:31:42.499Z,14.47
2018-12-06T04:34:13.258Z,25.55
2018-12-06T04:36:42.079Z,25.80
2018-12-06T04:39:10.786Z,12.93
2018-12-06T04:41:39.487Z,18.37
2018-12-06T04:44:08.330Z,13.08
2018-12-06T04:46:37.081Z,11.33
2018-12-06T04:49:05.815Z,21.90
2018-12-06T04:51:34.600Z,15.93
2018-12-06T04:54:03.351Z,24.90
2018-12-06T04:56:32.146Z,9.93
2018-12-06T04:59:01.027Z,22.10
2018-12-06T05:01:29.796Z,17.00
2018-12-06T05:03:58.541Z,16.90
2018-12-06T05:06:28.264Z,15.83
2018-12-06T05:08:57.065Z,13.15
2018-12-06T05:11:25.781Z,15.10
2018-12-06T05:13:54.487Z,15.53
2018-12-06T05:16:24.393Z,16.02
2018-12-06T05:18:53.065Z,10.65
2018-12-06T05:21:21.986Z,10.75
2018-12-06T05:23:50.917Z,18.95
2018-12-06T05:26:19.777Z,12.80
2018-12-06T05:28:48.467Z,16.40
2018-12-06T05:31:17.208Z,19.67
2018-12-06T05:33:46.081Z,10.40
2018-12-06T05:36:14.936Z,12.53
2018-12-06T05:38:43.636Z,12.37
2018-12-06T05:41:12.415Z,16.97
2018-12-06T05:43:41.263Z,11.18
2018-12-06T05:46:10.093Z,12.88
2018-12-06T05:48:38.796Z,10.28
2018-12-06T05:51:07.652Z,18.98
2018-12-06T05:53:36.546Z,11.75
2018-12-06T05:56:05.275Z,18.17
2018-12-06T05:58:34.033Z,13.38
2018-12-06T06:01:02.772Z,13.48
2018-12-06T06:03:31.577Z,8.48
2018-12-06T06:06:00.482Z,9.58
2018-12-06T06:08:29.238Z,15.75
2018-12-06T06:10:58.101Z,11.85
2018-12-06T06:13:26.859Z,15.28
2018-12-06T06:15:55.665Z,13.75
2018-12-06T06:18:24.478Z,13.48
2018-12-06T06:20:53.259Z,13.40
2018-12-06T06:23:21.960Z,11.55
2018-12-06T06:25:50.911Z,9.93
2018-12-06T06:28:19.766Z,14.30
2018-12-06T06:30:48.673Z,10.20
2018-12-06T06:33:17.477Z,12.60
2018-12-06T06:35:46.340Z,11.05
2018-12-06T06:38:15.175Z,15.10
2018-12-06T06:40:44.019Z,9.35
2018-12-06T06:43:12.741Z,15.80
2018-12-06T06:45:41.444Z,10.30
2018-12-06T06:48:10.296Z,12.50
2018-12-06T06:50:39.131Z,15.78
2018-12-06T06:53:07.926Z,18.80
2018-12-06T06:55:36.686Z,12.95
2018-12-06T06:58:05.829Z,9.08
2018-12-06T07:00:34.591Z,11.00
2018-12-06T07:03:03.620Z,10.70
2018-12-06T07:05:32.462Z,13.05
2018-12-06T07:08:01.362Z,13.80
2018-12-06T07:10:30.157Z,12.93
2018-12-06T07:12:58.875Z,34.08
2018-12-06T07:15:27.774Z,56.13
2018-12-06T07:17:56.655Z,103.58
2018-12-06T07:20:25.613Z,171.32
2018-12-06T07:22:54.336Z,225.65
2018-12-06T07:25:23.085Z,267.45
2018-12-06T07:27:52.006Z,321.70
2018-12-06T07:30:20.863Z,356.93
2018-12-06T07:32:49.583Z,358.25
2018-12-06T07:35:18.283Z,407.45
2018-12-06T07:37:47.034Z,519.20
2018-12-06T07:40:15.748Z,500.57
2018-12-06T07:42:44.562Z,540.10
2018-12-06T07:45:13.519Z,616.75
2018-12-06T07:47:42.253Z,649.15
2018-12-06T07:50:11.061Z,777.08
2018-12-06T07:52:39.869Z,630.77
2018-12-06T07:55:08.836Z,627.20
2018-12-06T07:57:37.603Z,631.37
2018-12-06T08:00:07.971Z,591.05
2018-12-06T08:02:36.754Z,559.03
2018-12-06T08:05:06.483Z,572.45
2018-12-06T08:07:35.476Z,554.65
2018-12-06T08:10:05.113Z,539.60
2018-12-06T08:12:33.911Z,545.17
2018-12-06T08:15:02.770Z,555.05
2018-12-06T08:17:31.587Z,414.23
2018-12-06T08:20:00.356Z,471.30
2018-12-06T08:22:29.225Z,432.80
2018-12-06T08:24:57.929Z,435.45
2018-12-06T08:27:26.697Z,436.88
2018-12-06T08:29:55.411Z,407.27
2018-12-06T08:32:24.217Z,431.07
2018-12-06T08:34:54.257Z,410.57
2018-12-06T08:37:22.998Z,369.95
2018-12-06T08:39:51.776Z,376.92
2018-12-06T08:42:20.683Z,410.10
2018-12-06T08:44:49.472Z,383.00
2018-12-06T08:47:18.191Z,383.35
2018-12-06T08:49:47.070Z,425.75
2018-12-06T08:52:15.823Z,408.15
2018-12-06T08:54:44.577Z,366.98
2018-12-06T08:57:13.479Z,349.37
2018-12-06T08:59:42.181Z,322.67
2018-12-06T09:02:10.892Z,332.15
2018-12-06T09:04:39.693Z,411.98
2018-12-06T09:07:09.485Z,320.40
2018-12-06T09:09:38.267Z,373.48
2018-12-06T09:12:07.124Z,316.45
2018-12-06T09:14:35.964Z,330.32
2018-12-06T09:17:04.875Z,312.65
2018-12-06T09:19:33.607Z,318.25
2018-12-06T09:22:02.337Z,308.52
2018-12-06T09:24:31.074Z,335.43
2018-12-06T09:26:59.881Z,298.98
2018-12-06T09:29:28.677Z,287.33
2018-12-06T09:31:57.487Z,338.48
2018-12-06T09:34:26.316Z,282.37
2018-12-06T09:36:55.172Z,287.35
2018-12-06T09:39:25.042Z,272.85
2018-12-06T09:41:53.803Z,266.50
2018-12-06T09:44:22.646Z,299.10
2018-12-06T09:46:51.446Z,261.10
2018-12-06T09:49:20.175Z,241.60
2018-12-06T09:51:49.062Z,258.52
2018-12-06T09:54:17.844Z,247.33
2018-12-06T09:56:46.586Z,246.32
2018-12-06T09:59:15.320Z,260.52
2018-12-06T10:01:45.057Z,223.57
2018-12-06T10:04:13.910Z,234.35
2018-12-06T10:06:42.694Z,235.97
2018-12-06T10:09:11.506Z,255.00
2018-12-06T10:11:40.450Z,216.82
2018-12-06T10:14:09.255Z,230.27
2018-12-06T10:16:38.081Z,211.50
2018-12-06T10:19:06.827Z,212.00
2018-12-06T10:21:35.535Z,161.18
2018-12-06T10:24:04.496Z,170.07
2018-12-06T10:26:33.341Z,154.68
2018-12-06T10:29:02.185Z,158.37
2018-12-06T10:31:30.999Z,143.25
2018-12-06T10:33:59.817Z,162.88
2018-12-06T10:36:28.631Z,130.87
2018-12-06T10:38:57.422Z,133.65
2018-12-06T10:41:26.198Z,134.72
2018-12-06T10:43:54.975Z,150.95
2018-12-06T10:46:58.243Z,145.87
2018-12-06T10:49:27.081Z,154.10
2018-12-06T10:51:55.839Z,142.98
2018-12-06T10:54:24.767Z,121.90
2018-12-06T10:56:53.616Z,127.80
2018-12-06T10:59:22.327Z,154.10
2018-12-06T11:01:56.405Z,148.47
2018-12-06T11:04:29.363Z,120.20
2018-12-06T11:06:58.206Z,119.13
2018-12-06T11:09:27.026Z,134.03
2018-12-06T11:11:55.964Z,122.22
2018-12-06T11:14:24.846Z,99.80
2018-12-06T11:16:53.719Z,108.12
2018-12-06T11:19:22.550Z,105.22
2018-12-06T11:21:51.334Z,123.05
2018-12-06T11:24:20.196Z,100.35
2018-12-06T11:26:48.904Z,111.20
2018-12-06T11:29:17.683Z,95.07
2018-12-06T11:31:46.543Z,110.88
2018-12-06T11:34:15.417Z,100.15
2018-12-06T11:36:44.237Z,82.53
2018-12-06T11:39:12.948Z,110.15
2018-12-06T11:41:43.298Z,93.75
2018-12-06T11:44:12.117Z,109.25
2018-12-06T11:46:40.840Z,107.50
2018-12-06T11:49:09.653Z,115.22
2018-12-06T11:51:38.377Z,96.80
2018-12-06T11:54:07.131Z,93.12
2018-12-06T11:56:35.859Z,89.67
2018-12-06T11:59:04.749Z,106.07
2018-12-06T12:01:33.527Z,99.95
2018-12-06T12:04:02.314Z,93.30
2018-12-06T12:06:31.088Z,90.00
2018-12-06T12:08:59.889Z,90.03
2018-12-06T12:11:28.645Z,65.37
2018-12-06T12:13:57.360Z,73.85
2018-12-06T12:16:26.101Z,98.20
2018-12-06T12:18:54.840Z,85.77
2018-12-06T12:21:23.722Z,77.00
2018-12-06T12:23:52.449Z,72.32
2018-12-06T12:26:21.181Z,81.97
2018-12-06T12:28:49.959Z,66.12
2018-12-06T12:31:18.664Z,74.45
2018-12-06T12:33:47.372Z,58.60
2018-12-06T12:36:16.101Z,59.03
2018-12-06T12:38:44.923Z,78.28
2018-12-06T12:41:13.720Z,71.50
2018-12-06T12:43:42.427Z,78.40
2018-12-06T12:46:11.142Z,58.52
2018-12-06T12:48:39.916Z,64.95
2018-12-06T12:51:08.665Z,54.77
2018-12-06T12:53:38.474Z,67.58
2018-12-06T12:56:07.441Z,64.75
2018-12-06T12:58:36.144Z,70.60
2018-12-06T13:01:04.854Z,62.50
2018-12-06T13:03:33.703Z,73.12
2018-12-06T13:06:02.530Z,62.78
2018-12-06T13:08:31.262Z,60.38
2018-12-06T13:11:00.311Z,52.95
2018-12-06T13:13:29.036Z,52.75
2018-12-06T13:15:57.891Z,51.33
2018-12-06T13:18:27.910Z,57.78
2018-12-06T13:20:56.779Z,44.58
2018-12-06T13:23:25.725Z,47.05
2018-12-06T13:27:23.707Z,51.05
2018-12-06T13:29:52.455Z,60.65
2018-12-06T13:32:21.233Z,48.90
2018-12-06T13:34:50.033Z,43.28
2018-12-06T13:37:18.967Z,45.78
2018-12-06T13:39:47.731Z,50.60
2018-12-06T13:42:23.330Z,53.65
2018-12-06T13:44:47.465Z,46.37
2018-12-06T13:47:16.192Z,50.55
2018-12-06T13:49:44.909Z,43.20
2018-12-06T13:52:13.827Z,49.35
2018-12-06T13:54:42.566Z,48.78
2018-12-06T13:57:11.323Z,37.30
2018-12-06T13:59:41.983Z,88.70
2018-12-06T14:02:10.992Z,51.98
2018-12-06T14:04:39.738Z,36.25
2018-12-06T14:07:08.552Z,33.60
2018-12-06T14:09:37.260Z,44.35
2018-12-06T14:12:06.057Z,40.05
2018-12-06T14:14:34.769Z,34.48
2018-12-06T14:17:03.659Z,33.58
2018-12-06T14:19:32.525Z,35.20
2018-12-06T14:22:01.342Z,38.02
2018-12-06T14:24:30.062Z,32.28
2018-12-06T14:26:58.882Z,34.43
2018-12-06T14:29:27.619Z,37.30
2018-12-06T14:31:56.416Z,49.75
2018-12-06T14:34:25.223Z,39.38
2018-12-06T14:37:01.726Z,26.55
2018-12-06T14:39:24.685Z,25.90
2018-12-06T14:41:53.406Z,35.55
2018-12-06T14:44:22.164Z,26.25
2018-12-06T14:46:50.939Z,30.50
2018-12-06T14:49:19.659Z,26.68
2018-12-06T14:51:48.368Z,29.27
2018-12-06T14:54:17.285Z,27.95
2018-12-06T14:56:46.045Z,27.17
2018-12-06T14:59:14.833Z,39.23
2018-12-06T15:01:43.706Z,31.65
2018-12-06T15:04:12.565Z,37.40
2018-12-06T15:06:41.298Z,34.30
2018-12-06T15:09:10.148Z,31.93
2018-12-06T15:11:38.874Z,40.43
2018-12-06T15:14:07.734Z,25.72
2018-12-06T15:16:36.463Z,34.67
2018-12-06T15:19:05.239Z,36.23
2018-12-06T15:21:34.044Z,31.60
2018-12-06T15:24:02.768Z,35.83
2018-12-06T15:26:31.539Z,49.60
2018-12-06T15:29:00.255Z,40.80
2018-12-06T15:31:29.925Z,31.93
2018-12-06T15:33:58.666Z,38.15
2018-12-06T15:36:27.425Z,28.23
2018-12-06T15:38:56.253Z,23.22
2018-12-06T15:41:24.989Z,27.22
2018-12-06T15:43:53.720Z,38.23
2018-12-06T15:46:22.428Z,24.23
2018-12-06T15:48:51.138Z,21.57
2018-12-06T15:51:19.973Z,30.65
2018-12-06T15:53:48.679Z,21.57
2018-12-06T15:56:17.483Z,13.20
2018-12-06T15:58:46.274Z,23.22
2018-12-06T16:01:14.990Z,31.27
2018-12-06T16:03:43.924Z,19.85
2018-12-06T16:06:13.734Z,29.92
2018-12-06T16:08:42.457Z,23.40
2018-12-06T16:11:11.249Z,27.25
2018-12-06T16:13:39.972Z,25.37
2018-12-06T16:16:08.787Z,26.33
2018-12-06T16:18:37.503Z,18.42
2018-12-06T16:21:06.220Z,14.95
2018-12-06T16:23:35.042Z,19.15
2018-12-06T16:26:03.927Z,21.97
2018-12-06T16:28:32.731Z,26.50
2018-12-06T16:31:01.448Z,13.68
2018-12-06T16:33:30.294Z,14.78
2018-12-06T16:35:59.029Z,21.85
2018-12-06T16:38:27.741Z,19.98
2018-12-06T16:40:56.531Z,13.72
2018-12-06T16:43:25.257Z,16.37
2018-12-06T16:45:54.042Z,22.58
2018-12-06T16:48:22.827Z,13.65
2018-12-06T16:50:51.758Z,14.80
2018-12-06T16:53:20.582Z,14.20
2018-12-06T16:55:49.344Z,17.37
2018-12-06T16:58:18.098Z,19.50
2018-12-06T17:00:46.969Z,14.55
2018-12-06T17:03:16.974Z,10.10
2018-12-06T17:05:45.687Z,20.57
2018-12-06T17:08:14.403Z,20.90
2018-12-06T17:10:43.146Z,12.65
2018-12-06T17:13:12.533Z,19.10
2018-12-06T17:15:41.246Z,20.37
2018-12-06T17:18:10.045Z,19.62
2018-12-06T17:20:38.905Z,24.50
2018-12-06T17:23:07.841Z,8.95
2018-12-06T17:25:37.765Z,13.58
2018-12-06T17:28:06.643Z,14.85
2018-12-06T17:30:35.516Z,13.05
2018-12-06T17:33:04.428Z,13.90
2018-12-06T17:35:33.220Z,16.50
2018-12-06T17:38:02.048Z,12.05
2018-12-06T17:40:30.734Z,24.77
2018-12-06T17:42:59.491Z,17.30
2018-12-06T17:45:28.214Z,29.40
2018-12-06T17:47:57.062Z,19.55
2018-12-06T17:50:25.893Z,25.27
2018-12-06T17:52:54.701Z,20.60
2018-12-06T17:55:23.458Z,21.65
2018-12-06T17:57:52.209Z,17.80
2018-12-06T18:00:21.081Z,17.67
2018-12-06T18:02:49.912Z,17.85
2018-12-06T18:05:18.684Z,18.07
2018-12-06T18:07:47.531Z,13.15
2018-12-06T18:10:16.734Z,10.93
2018-12-06T18:12:45.516Z,24.75
2018-12-06T18:15:14.583Z,19.45
2018-12-06T18:17:43.474Z,14.98
2018-12-06T18:20:12.310Z,9.50
2018-12-06T18:22:41.171Z,9.63
2018-12-06T18:25:10.017Z,26.65
2018-12-06T18:27:38.827Z,16.05
2018-12-06T18:30:09.148Z,15.60
2018-12-06T18:32:37.966Z,35.98
2018-12-06T18:35:06.913Z,10.00
2018-12-06T18:37:35.679Z,23.62
2018-12-06T18:40:04.921Z,13.10
2018-12-06T18:42:33.724Z,10.05
2018-12-06T18:45:02.595Z,12.30
2018-12-06T18:47:31.521Z,14.07
2018-12-06T18:50:00.234Z,15.48
2018-12-06T18:52:28.934Z,15.25
2018-12-06T18:54:57.733Z,16.65
2018-12-06T18:57:26.630Z,13.00
2018-12-06T18:59:55.322Z,23.30
2018-12-06T19:02:24.204Z,14.38
2018-12-06T19:04:53.048Z,13.25
2018-12-06T19:07:21.759Z,15.23
2018-12-06T19:09:50.465Z,9.65
2018-12-06T19:12:19.227Z,18.80
2018-12-06T19:14:47.921Z,9.80
2018-12-06T19:17:16.688Z,8.15
2018-12-06T19:19:45.465Z,6.62
2018-12-06T19:22:14.166Z,15.28
2018-12-06T19:24:42.878Z,8.18
2018-12-06T19:27:11.794Z,10.32
2018-12-06T19:29:40.725Z,11.40
2018-12-06T19:32:09.517Z,10.50
2018-12-06T19:34:38.546Z,7.28
2018-12-06T19:37:07.435Z,9.48
2018-12-06T19:39:36.320Z,6.53
2018-12-06T19:42:05.086Z,7.22
2018-12-06T19:44:34.038Z,6.70
2018-12-06T19:47:02.831Z,11.40
2018-12-06T19:49:31.681Z,6.20
2018-12-06T19:52:00.335Z,7.65
2018-12-06T19:54:29.053Z,10.18
2018-12-06T19:56:57.873Z,6.35
2018-12-06T19:59:26.603Z,8.40
2018-12-06T20:01:55.398Z,9.08
2018-12-06T20:04:24.171Z,10.72
2018-12-06T20:06:52.918Z,10.13
2018-12-06T20:09:21.705Z,6.67
2018-12-06T20:11:50.499Z,3.37
2018-12-06T20:14:19.336Z,6.25
2018-12-06T20:16:48.086Z,5.33
2018-12-06T20:19:16.789Z,8.30
2018-12-06T20:21:45.479Z,9.78
2018-12-06T20:24:14.169Z,8.68
2018-12-06T20:26:42.901Z,7.70
2018-12-06T20:29:11.678Z,6.95
2018-12-06T20:31:41.547Z,11.65
2018-12-06T20:34:10.371Z,6.22
2018-12-06T20:36:39.032Z,8.88
2018-12-06T20:39:08.074Z,8.55
2018-12-06T20:41:38.048Z,7.75
2018-12-06T20:44:06.862Z,8.25
2018-12-06T20:46:35.582Z,3.42
2018-12-06T20:49:04.438Z,5.90
2018-12-06T20:51:33.515Z,5.37
2018-12-06T20:54:02.341Z,9.15
2018-12-06T20:56:31.127Z,4.47
2018-12-06T20:58:59.836Z,13.75
2018-12-06T21:01:28.774Z,71.42
2018-12-06T21:03:57.546Z,135.28
2018-12-06T21:06:26.300Z,174.23
2018-12-06T21:08:55.098Z,270.40
2018-12-06T21:11:24.093Z,254.25
2018-12-06T21:13:52.892Z,360.95
2018-12-06T21:16:21.706Z,369.20
2018-12-06T21:18:50.493Z,399.75
2018-12-06T21:21:19.312Z,500.90
2018-12-06T21:23:48.068Z,485.07
2018-12-06T21:26:16.902Z,544.47
2018-12-06T21:28:45.643Z,504.50
2018-12-06T21:31:14.435Z,483.57
2018-12-06T21:33:45.210Z,456.82
2018-12-06T21:36:13.990Z,413.12
2018-12-06T21:38:42.750Z,409.50
2018-12-06T21:41:11.436Z,371.20
2018-12-06T21:43:40.142Z,375.98
2018-12-06T21:46:09.535Z,379.05
2018-12-06T21:48:38.323Z,383.75
2018-12-06T21:51:07.292Z,338.62
2018-12-06T21:53:36.094Z,382.53
2018-12-06T21:56:04.953Z,362.15
2018-12-06T21:58:33.803Z,347.63
2018-12-06T22:01:02.684Z,324.35
2018-12-06T22:03:31.499Z,365.45
2018-12-06T22:06:01.486Z,348.23
2018-12-06T22:08:30.269Z,289.05
2018-12-06T22:10:59.122Z,337.27
2018-12-06T22:13:27.922Z,342.98
2018-12-06T22:15:56.650Z,269.98
2018-12-06T22:18:25.484Z,333.07
2018-12-06T22:20:54.287Z,321.85
2018-12-06T22:23:23.103Z,313.48
2018-12-06T22:25:51.816Z,299.95
2018-12-06T22:28:20.536Z,303.37
2018-12-06T22:30:49.255Z,270.93
2018-12-06T22:33:17.965Z,238.55
2018-12-06T22:35:46.813Z,265.05
2018-12-06T22:38:15.561Z,275.13
2018-12-06T22:40:44.376Z,262.57
2018-12-06T22:43:13.162Z,252.47
2018-12-06T22:45:59.211Z,259.00
2018-12-06T22:48:29.027Z,239.20
2018-12-06T22:50:57.891Z,219.00
2018-12-06T22:53:26.762Z,238.75
2018-12-06T22:55:55.561Z,214.72
2018-12-06T22:58:25.405Z,228.85
2018-12-06T23:00:56.383Z,202.93
2018-12-06T23:03:28.243Z,203.18
2018-12-06T23:05:57.134Z,207.75
2018-12-06T23:08:25.941Z,205.60
2018-12-06T23:10:54.653Z,201.85
2018-12-06T23:13:23.507Z,187.70
2018-12-06T23:15:52.433Z,191.43
2018-12-06T23:18:21.234Z,165.68
2018-12-06T23:20:50.073Z,169.85
2018-12-06T23:23:18.960Z,169.97
2018-12-06T23:25:47.769Z,158.22
2018-12-06T23:28:18.587Z,186.80
2018-12-06T23:30:47.367Z,136.40
2018-12-06T23:33:16.152Z,154.68
2018-12-06T23:35:44.942Z,122.15
2018-12-06T23:38:13.642Z,146.65
2018-12-06T23:40:42.463Z,171.25
2018-12-06T23:43:11.302Z,153.82
2018-12-06T23:45:40.163Z,155.60
2018-12-06T23:48:08.968Z,143.37
2018-12-06T23:50:37.753Z,117.33
2018-12-06T23:53:06.559Z,135.05
2018-12-06T23:55:35.276Z,145.17
2018-12-06T23:58:05.159Z,109.83
